createdAt,value
2023-03-15T00:00:24.998Z,99120.41
2023-03-15T00:02:52.058Z,99122.91
2023-03-15T00:05:19.286Z,99134.00
2023-03-15T00:07:46.358Z,99143.38
2023-03-15T00:10:14.047Z,99141.66
2023-03-15T00:12:45.950Z,99147.63
2023-03-15T00:15:15.906Z,99146.75
2023-03-15T00:17:43.109Z,99153.56
2023-03-15T00:20:11.267Z,99174.00
2023-03-15T00:22:38.696Z,99163.75
2023-03-15T00:25:06.243Z,99173.97
2023-03-15T00:27:33.340Z,99165.44
2023-03-15T00:30:00.545Z,99170.53
2023-03-15T00:32:27.623Z,99178.19
2023-03-15T00:34:55.020Z,99177.34
2023-03-15T00:37:22.069Z,99190.09
2023-03-15T00:39:49.239Z,99194.31
2023-03-15T00:42:16.239Z,99206.22
2023-03-15T00:44:47.302Z,99207.97
2023-03-15T00:47:15.070Z,99207.97
2023-03-15T00:49:42.115Z,99216.44
2023-03-15T00:52:09.279Z,99223.28
2023-03-15T00:54:36.533Z,99230.91
2023-03-15T00:57:03.986Z,99236.88
2023-03-15T00:59:35.113Z,99248.81
2023-03-15T01:02:03.412Z,99246.25
2023-03-15T01:04:31.666Z,99250.50
2023-03-15T01:06:59.336Z,99268.41
2023-03-15T01:09:26.442Z,99264.16
2023-03-15T01:11:53.441Z,99264.97
2023-03-15T01:14:20.626Z,99269.25
2023-03-15T01:16:47.697Z,99267.50
2023-03-15T01:19:14.768Z,99279.41
2023-03-15T01:21:41.937Z,99284.56
2023-03-15T01:24:13.489Z,99294.78
2023-03-15T01:26:41.104Z,99300.69
2023-03-15T01:29:08.370Z,99312.59
2023-03-15T01:31:35.622Z,99315.13
2023-03-15T01:34:02.837Z,99316.88
2023-03-15T01:36:32.846Z,99322.00
2023-03-15T01:38:59.935Z,99318.56
2023-03-15T01:41:39.083Z,99328.78
2023-03-15T01:44:06.153Z,99337.28
2023-03-15T01:46:36.584Z,99342.41
2023-03-15T01:49:24.202Z,99349.22
2023-03-15T01:52:09.598Z,99347.50
2023-03-15T01:55:04.376Z,99350.09
2023-03-15T01:57:37.613Z,99348.31
2023-03-15T02:00:13.651Z,99361.97
2023-03-15T02:02:56.032Z,99361.13
2023-03-15T02:05:32.660Z,99366.19
2023-03-15T02:08:03.358Z,99376.41
2023-03-15T02:10:44.267Z,99374.69
2023-03-15T02:13:15.895Z,99376.34
2023-03-15T02:15:49.782Z,99378.88
2023-03-15T02:18:25.063Z,99395.09
2023-03-15T02:21:10.400Z,99394.97
2023-03-15T02:23:37.506Z,99397.50
2023-03-15T02:26:17.924Z,99410.28
2023-03-15T02:28:45.218Z,99414.47
2023-03-15T02:31:13.502Z,99421.28
2023-03-15T02:33:46.298Z,99428.06
2023-03-15T02:36:25.107Z,99426.34
2023-03-15T02:38:53.428Z,99439.97
2023-03-15T02:41:39.052Z,99439.09
2023-03-15T02:44:14.458Z,99446.72
2023-03-15T02:46:43.231Z,99440.75
2023-03-15T02:49:11.464Z,99440.69
2023-03-15T02:51:38.671Z,99439.88
2023-03-15T02:54:05.723Z,99437.31
2023-03-15T02:56:33.719Z,99452.56
2023-03-15T02:59:01.798Z,99445.69
2023-03-15T03:01:29.408Z,99449.88
2023-03-15T03:03:56.976Z,99449.03
2023-03-15T03:06:24.776Z,99459.19
2023-03-15T03:08:52.008Z,99460.81
2023-03-15T03:11:20.974Z,99476.13
2023-03-15T03:13:48.083Z,99464.19
2023-03-15T03:16:15.125Z,99465.88
2023-03-15T03:18:43.398Z,99482.03
2023-03-15T03:21:10.571Z,99482.78
2023-03-15T03:23:37.992Z,99492.97
2023-03-15T03:26:17.082Z,99493.84
2023-03-15T03:28:47.670Z,99490.44
2023-03-15T03:31:25.200Z,99496.25
2023-03-15T03:33:55.476Z,99499.63
2023-03-15T03:36:22.656Z,99495.31
2023-03-15T03:38:51.695Z,99514.06
2023-03-15T03:41:18.708Z,99523.44
2023-03-15T03:43:45.790Z,99531.03
2023-03-15T03:46:12.994Z,99535.22
2023-03-15T03:48:46.174Z,99534.38
2023-03-15T03:51:13.432Z,99547.13
2023-03-15T03:53:40.408Z,99551.31
2023-03-15T03:56:08.862Z,99552.16
2023-03-15T03:58:36.975Z,99547.88
2023-03-15T04:01:12.208Z,99555.53
2023-03-15T04:03:41.040Z,99550.44
2023-03-15T04:06:15.077Z,99562.38
2023-03-15T04:08:45.147Z,99562.38
2023-03-15T04:11:17.946Z,99572.53
2023-03-15T04:13:51.105Z,99576.78
2023-03-15T04:16:18.223Z,99592.97
2023-03-15T04:18:56.543Z,99592.91
2023-03-15T04:21:24.711Z,99602.22
2023-03-15T04:23:56.454Z,99603.03
2023-03-15T04:26:43.452Z,99591.84
2023-03-15T04:29:33.417Z,99602.06
2023-03-15T04:32:20.762Z,99614.00
2023-03-15T04:35:13.852Z,99619.88
2023-03-15T04:38:13.356Z,99623.25
2023-03-15T04:40:43.022Z,99626.69
2023-03-15T04:43:30.339Z,99626.69
2023-03-15T04:46:35.921Z,99642.06
2023-03-15T04:49:29.225Z,99642.16
2023-03-15T04:52:08.454Z,99640.50
2023-03-15T04:54:58.553Z,99642.13
2023-03-15T04:57:48.218Z,99639.56
2023-03-15T05:00:48.034Z,99653.25
2023-03-15T05:03:36.945Z,99659.25
2023-03-15T05:06:19.186Z,99657.50
2023-03-15T05:08:49.267Z,99662.59
2023-03-15T05:11:39.337Z,99670.28
2023-03-15T05:14:26.664Z,99673.75
2023-03-15T05:17:26.466Z,99663.44
2023-03-15T05:37:10.500Z,99699.50
2023-03-15T05:39:56.361Z,99711.41
2023-03-15T05:42:49.611Z,99702.16
2023-03-15T05:45:30.096Z,99710.69
2023-03-15T05:48:05.214Z,99713.25
2023-03-15T05:50:53.172Z,99722.63
2023-03-15T05:53:55.457Z,99743.13
2023-03-15T05:56:36.302Z,99749.84
2023-03-15T05:59:22.522Z,99748.84
2023-03-15T06:02:10.147Z,99768.47
2023-03-15T06:04:50.818Z,99766.66
2023-03-15T06:07:21.980Z,99774.31
2023-03-15T06:09:49.155Z,99781.22
2023-03-15T06:12:16.173Z,99782.94
2023-03-15T06:14:43.563Z,99785.66
2023-03-15T06:17:11.994Z,99785.78
2023-03-15T06:19:42.340Z,99796.13
2023-03-15T06:22:10.255Z,99796.22
2023-03-15T06:24:50.870Z,99811.63
2023-03-15T06:27:22.167Z,99806.50
2023-03-15T06:29:50.850Z,99813.41
2023-03-15T06:32:21.067Z,99823.59
2023-03-15T06:34:48.293Z,99828.72
2023-03-15T06:37:22.723Z,99828.66
2023-03-15T06:39:56.777Z,99837.19
2023-03-15T06:42:23.939Z,99838.88
2023-03-15T06:44:51.330Z,99842.28
2023-03-15T06:47:19.741Z,99830.41
2023-03-15T06:49:50.558Z,99836.28
2023-03-15T06:52:19.309Z,99832.94
2023-03-15T06:54:46.509Z,99849.22
2023-03-15T06:57:13.618Z,99850.13
2023-03-15T06:59:40.947Z,99836.47
2023-03-15T07:02:14.835Z,99869.03
2023-03-15T07:04:42.031Z,99858.78
2023-03-15T07:07:09.174Z,99854.50
2023-03-15T07:09:36.260Z,99855.28
2023-03-15T07:12:03.631Z,99872.50
2023-03-15T07:14:30.782Z,99873.38
2023-03-15T07:16:57.877Z,99875.13
2023-03-15T07:19:25.109Z,99873.50
2023-03-15T07:21:52.393Z,99876.06
2023-03-15T07:24:19.744Z,99880.44
2023-03-15T07:26:46.946Z,99871.16
2023-03-15T07:29:14.160Z,99877.25
2023-03-15T07:31:41.193Z,99887.59
2023-03-15T07:34:08.361Z,99884.06
2023-03-15T07:36:35.428Z,99885.84
2023-03-15T07:39:02.701Z,99889.28
2023-03-15T07:41:30.029Z,99891.06
2023-03-15T07:44:06.468Z,99898.00
2023-03-15T07:46:33.753Z,99895.34
2023-03-15T07:49:00.809Z,99904.75
2023-03-15T07:51:27.857Z,99894.53
2023-03-15T07:53:54.981Z,99901.41
2023-03-15T07:56:22.090Z,99908.22
2023-03-15T07:58:49.139Z,99909.81
2023-03-15T08:01:16.288Z,99918.38
2023-03-15T08:03:44.011Z,99927.81
2023-03-15T08:06:11.069Z,99932.06
2023-03-15T08:08:38.222Z,99928.63
2023-03-15T08:11:06.070Z,99933.81
2023-03-15T08:13:34.118Z,99946.56
2023-03-15T08:16:01.596Z,99949.13
2023-03-15T08:18:31.682Z,99932.13
2023-03-15T08:20:59.425Z,99947.69
2023-03-15T08:23:26.499Z,99952.84
2023-03-15T08:25:53.728Z,99949.41
2023-03-15T08:28:20.922Z,99957.81
2023-03-15T08:30:47.914Z,99949.19
2023-03-15T08:33:14.949Z,99957.81
2023-03-15T08:35:42.224Z,99954.50
2023-03-15T08:38:09.606Z,99959.75
2023-03-15T08:40:38.908Z,99965.91
2023-03-15T08:43:07.070Z,99958.16
2023-03-15T08:45:50.949Z,99967.69
2023-03-15T08:48:21.382Z,99972.03
2023-03-15T08:50:48.983Z,99975.59
2023-03-15T08:53:16.217Z,99982.41
2023-03-15T08:55:43.406Z,99985.06
2023-03-15T08:58:13.022Z,99988.53
2023-03-15T09:00:40.727Z,99986.78
2023-03-15T09:03:07.822Z,99994.50
2023-03-15T09:05:34.957Z,100000.44
2023-03-15T09:08:02.249Z,100001.28
2023-03-15T09:10:29.586Z,100004.72
2023-03-15T09:12:56.889Z,100009.84
2023-03-15T09:15:24.026Z,100018.34
2023-03-15T09:17:51.962Z,100023.44
2023-03-15T09:20:22.162Z,100026.19
2023-03-15T09:22:53.835Z,100018.50
2023-03-15T09:25:22.303Z,100024.59
2023-03-15T09:27:50.160Z,100032.47
2023-03-15T09:30:17.996Z,100030.03
2023-03-15T09:32:46.149Z,100029.25
2023-03-15T09:35:16.709Z,100032.78
2023-03-15T09:37:44.148Z,100046.56
2023-03-15T09:40:35.221Z,100046.78
2023-03-15T09:43:09.178Z,100033.94
2023-03-15T09:45:45.582Z,100043.50
2023-03-15T09:48:38.100Z,100045.34
2023-03-15T09:51:35.954Z,100045.53
2023-03-15T09:54:15.473Z,100050.78
2023-03-15T09:57:04.953Z,100050.91
2023-03-15T09:59:38.707Z,100058.66
2023-03-15T10:02:25.118Z,100063.81
2023-03-15T10:05:08.362Z,100063.63
2023-03-15T10:07:36.182Z,100052.31
2023-03-15T10:10:05.124Z,100066.66
2023-03-15T10:12:41.588Z,100074.22
2023-03-15T10:15:26.411Z,100069.88
2023-03-15T10:17:59.188Z,100081.09
2023-03-15T10:20:41.585Z,100072.84
2023-03-15T10:23:45.527Z,100073.16
2023-03-15T10:26:16.024Z,100078.47
2023-03-15T10:28:44.196Z,100064.72
2023-03-15T10:31:25.979Z,100073.31
2023-03-15T10:33:59.781Z,100076.84
2023-03-15T10:36:27.178Z,100085.50
2023-03-15T10:38:54.560Z,100076.97
2023-03-15T10:41:40.712Z,100074.47
2023-03-15T10:44:13.943Z,100073.69
2023-03-15T10:46:41.231Z,100073.72
2023-03-15T10:49:09.911Z,100070.34
2023-03-15T10:51:47.989Z,100073.78
2023-03-15T10:54:23.159Z,100079.72
2023-03-15T10:57:06.417Z,100090.78
2023-03-15T10:59:35.905Z,100089.97
2023-03-15T11:02:11.808Z,100084.00
2023-03-15T11:04:43.929Z,100091.72
2023-03-15T11:07:13.717Z,100099.38
2023-03-15T11:09:45.980Z,100100.97
2023-03-15T11:12:21.617Z,100106.94
2023-03-15T11:14:58.430Z,100101.81
2023-03-15T11:17:29.407Z,100105.97
2023-03-15T11:19:59.635Z,100109.16
2023-03-15T11:22:26.662Z,100116.66
2023-03-15T11:24:58.673Z,100122.47
2023-03-15T11:27:28.075Z,100119.91
2023-03-15T11:29:58.427Z,100114.88
2023-03-15T11:32:29.342Z,100104.75
2023-03-15T11:35:24.595Z,100108.44
2023-03-15T11:37:58.538Z,100112.91
2023-03-15T11:40:33.006Z,100118.94
2023-03-15T11:43:03.031Z,100107.72
2023-03-15T11:45:42.108Z,100105.03
2023-03-15T11:48:36.632Z,100111.13
2023-03-15T11:51:04.410Z,100123.94
2023-03-15T11:53:37.199Z,100111.88
2023-03-15T11:56:21.603Z,100114.47
2023-03-15T11:59:08.789Z,100123.75
2023-03-15T12:01:36.136Z,100117.75
2023-03-15T12:04:24.798Z,100119.50
2023-03-15T12:06:57.392Z,100116.91
2023-03-15T12:09:52.633Z,100117.75
2023-03-15T12:12:25.523Z,100115.97
2023-03-15T12:15:20.260Z,100112.44
2023-03-15T12:17:51.497Z,100120.84
2023-03-15T12:20:21.741Z,100114.03
2023-03-15T12:22:51.656Z,100110.69
2023-03-15T12:25:48.964Z,100106.47
2023-03-15T12:28:30.525Z,100110.69
2023-03-15T12:31:02.110Z,100112.44
2023-03-15T12:33:32.421Z,100095.38
2023-03-15T12:36:09.523Z,100105.88
2023-03-15T12:38:39.356Z,100100.81
2023-03-15T12:41:30.053Z,100118.13
2023-03-15T12:44:32.070Z,100099.28
2023-03-15T12:47:01.124Z,100119.81
2023-03-15T12:49:57.299Z,100119.75
2023-03-15T12:52:43.352Z,100119.72
2023-03-15T12:55:10.337Z,100118.00
2023-03-15T12:57:46.790Z,100122.25
2023-03-15T13:00:23.308Z,100126.50
2023-03-15T13:03:01.898Z,100126.41
2023-03-15T13:05:37.699Z,100137.47
2023-03-15T13:08:09.517Z,100128.75
2023-03-15T13:10:39.300Z,100137.31
2023-03-15T13:13:18.218Z,100141.56
2023-03-15T13:16:22.733Z,100133.00
2023-03-15T13:19:05.530Z,100129.69
2023-03-15T13:21:40.020Z,100133.25
2023-03-15T13:24:17.361Z,100126.44
2023-03-15T13:26:55.585Z,100131.69
2023-03-15T13:29:31.580Z,100141.16
2023-03-15T13:32:09.498Z,100138.66
2023-03-15T13:34:36.863Z,100133.56
2023-03-15T13:37:04.426Z,100141.28
2023-03-15T13:39:34.359Z,100139.69
2023-03-15T13:42:16.713Z,100140.59
2023-03-15T13:44:44.157Z,100144.00
2023-03-15T13:47:22.101Z,100156.78
2023-03-15T13:49:53.052Z,100163.56
2023-03-15T13:52:20.753Z,100173.78
2023-03-15T13:54:48.385Z,100170.31
2023-03-15T13:57:23.724Z,100172.78
2023-03-15T14:00:00.756Z,100170.84
2023-03-15T14:02:38.047Z,100181.88
2023-03-15T14:05:14.849Z,100175.00
2023-03-15T14:07:45.979Z,100176.59
2023-03-15T14:10:19.279Z,100180.06
2023-03-15T14:12:46.851Z,100181.78
2023-03-15T14:15:24.229Z,100187.84
2023-03-15T14:18:01.117Z,100189.56
2023-03-15T14:20:36.556Z,100196.41
2023-03-15T14:23:05.076Z,100197.16
2023-03-15T14:25:36.498Z,100198.72
2023-03-15T14:28:05.715Z,100201.19
2023-03-15T14:30:38.077Z,100186.53
2023-03-15T14:33:09.019Z,100194.19
2023-03-15T14:35:36.033Z,100197.56
2023-03-15T14:38:23.686Z,100197.41
2023-03-15T14:40:52.207Z,100193.97
2023-03-15T14:43:19.750Z,100202.53
2023-03-15T14:45:48.913Z,100199.13
2023-03-15T14:48:29.220Z,100192.44
2023-03-15T14:50:56.717Z,100187.38
2023-03-15T14:53:26.953Z,100195.25
2023-03-15T14:55:54.120Z,100200.47
2023-03-15T14:58:22.788Z,100190.31
2023-03-15T15:00:53.586Z,100198.13
2023-03-15T15:03:29.753Z,100193.00
2023-03-15T15:05:57.048Z,100196.44
2023-03-15T15:08:24.223Z,100199.91
2023-03-15T15:10:53.694Z,100205.00
2023-03-15T15:13:24.602Z,100205.81
2023-03-15T15:15:56.201Z,100210.91
2023-03-15T15:18:29.227Z,100203.16
2023-03-15T15:20:58.670Z,100216.81
2023-03-15T15:23:57.531Z,100220.09
2023-03-15T15:26:27.405Z,100225.16
2023-03-15T15:28:55.403Z,100229.41
2023-03-15T15:31:24.519Z,100230.22
2023-03-15T15:33:53.047Z,100236.19
2023-03-15T15:36:26.018Z,100243.97
2023-03-15T15:38:53.317Z,100249.09
2023-03-15T15:41:25.661Z,100240.47
2023-03-15T15:43:52.984Z,100249.91
2023-03-15T15:46:20.170Z,100243.88
2023-03-15T15:48:47.319Z,100257.56
2023-03-15T15:51:28.038Z,100262.66
2023-03-15T15:53:58.187Z,100267.81
2023-03-15T15:56:44.436Z,100270.38
2023-03-15T15:59:15.097Z,100270.28
2023-03-15T16:01:59.057Z,100278.88
2023-03-15T16:04:27.355Z,100276.25
2023-03-15T16:07:03.783Z,100288.22
2023-03-15T16:09:36.281Z,100281.31
2023-03-15T16:12:11.511Z,100292.41
2023-03-15T16:14:38.577Z,100291.50
2023-03-15T16:17:16.627Z,100296.59
2023-03-15T16:19:43.870Z,100303.34
2023-03-15T16:22:11.262Z,100307.59
2023-03-15T16:24:39.862Z,100308.41
2023-03-15T16:27:08.595Z,100307.47
2023-03-15T16:29:38.034Z,100312.59
2023-03-15T16:32:17.664Z,100309.13
2023-03-15T16:34:54.738Z,100308.13
2023-03-15T16:37:29.089Z,100295.97
2023-03-15T16:39:56.236Z,100317.34
2023-03-15T16:42:25.777Z,100320.66
2023-03-15T16:44:53.715Z,100330.00
2023-03-15T16:47:21.364Z,100326.44
2023-03-15T16:49:48.429Z,100330.53
2023-03-15T16:52:17.293Z,100336.34
2023-03-15T16:54:47.722Z,100336.13
2023-03-15T16:57:22.110Z,100341.06
2023-03-15T16:59:49.804Z,100328.97
2023-03-15T17:02:28.989Z,100342.53
2023-03-15T17:04:56.063Z,100350.94
2023-03-15T17:07:30.012Z,100350.72
2023-03-15T17:09:57.552Z,100349.56
2023-03-15T17:12:29.322Z,100364.72
2023-03-15T17:14:59.499Z,100366.09
2023-03-15T17:17:28.669Z,100354.66
2023-03-15T17:19:56.298Z,100361.06
2023-03-15T17:22:25.409Z,100371.16
2023-03-15T17:24:52.926Z,100370.94
2023-03-15T17:27:26.432Z,100386.47
2023-03-15T17:29:53.558Z,100395.13
2023-03-15T17:32:20.725Z,100395.13
2023-03-15T17:34:48.043Z,100397.75
2023-03-15T17:37:16.706Z,100397.00
2023-03-15T17:39:45.220Z,100405.59
2023-03-15T17:42:15.691Z,100405.59
2023-03-15T17:44:42.916Z,100396.09
2023-03-15T17:47:13.593Z,100422.81
2023-03-15T17:49:41.109Z,100428.91
2023-03-15T17:52:18.670Z,100415.34
2023-03-15T17:54:46.515Z,100424.84
2023-03-15T17:57:13.621Z,100430.84
2023-03-15T17:59:40.861Z,100439.44
2023-03-15T18:02:17.784Z,100434.38
2023-03-15T18:04:45.044Z,100435.13
2023-03-15T18:07:12.419Z,100439.38
2023-03-15T18:09:40.073Z,100438.53
2023-03-15T18:12:12.802Z,100438.44
2023-03-15T18:14:40.812Z,100437.53
2023-03-15T18:17:08.092Z,100436.56
2023-03-15T18:19:35.190Z,100438.09
2023-03-15T18:22:02.665Z,100438.66
2023-03-15T18:24:29.776Z,100446.22
2023-03-15T18:26:56.956Z,100447.66
2023-03-15T18:29:23.985Z,100444.84
2023-03-15T18:31:51.048Z,100447.34
2023-03-15T18:34:22.117Z,100454.00
2023-03-15T18:36:49.423Z,100433.22
2023-03-15T18:39:16.613Z,100439.88
2023-03-15T18:41:43.651Z,100450.72
2023-03-15T18:44:11.436Z,100458.09
2023-03-15T18:46:38.552Z,100467.25
2023-03-15T18:49:06.117Z,100471.25
2023-03-15T18:51:33.196Z,100476.16
2023-03-15T18:54:00.315Z,100476.81
2023-03-15T18:56:34.536Z,100485.25
2023-03-15T18:59:02.514Z,100480.09
2023-03-15T19:01:29.855Z,100484.41
2023-03-15T19:03:57.307Z,100492.84
2023-03-15T19:06:24.418Z,100497.88
2023-03-15T19:08:54.417Z,100491.94
2023-03-15T19:11:24.120Z,100484.19
2023-03-15T19:13:51.523Z,100499.59
2023-03-15T19:16:22.322Z,100497.94
2023-03-15T19:18:51.821Z,100501.34
2023-03-15T19:21:19.938Z,100502.97
2023-03-15T19:23:47.578Z,100494.22
2023-03-15T19:26:14.933Z,100506.88
2023-03-15T19:28:42.418Z,100504.16
2023-03-15T19:31:09.735Z,100505.88
2023-03-15T19:33:37.102Z,100513.44
2023-03-15T19:36:04.756Z,100509.06
2023-03-15T19:38:31.815Z,100512.38
2023-03-15T19:41:03.912Z,100508.88
2023-03-15T19:43:31.160Z,100507.16
2023-03-15T19:45:58.560Z,100512.34
2023-03-15T19:48:25.931Z,100505.50
2023-03-15T19:50:53.141Z,100503.94
2023-03-15T19:53:20.092Z,100523.19
2023-03-15T19:55:47.147Z,100524.16
2023-03-15T19:58:14.794Z,100528.56
2023-03-15T20:00:41.954Z,100540.69
2023-03-15T20:03:09.156Z,100544.88
2023-03-15T20:05:37.846Z,100545.78
2023-03-15T20:08:05.236Z,100537.31
2023-03-15T20:10:32.446Z,100545.97
2023-03-15T20:12:59.502Z,100549.44
2023-03-15T20:15:28.235Z,100550.34
2023-03-15T20:17:56.346Z,100551.25
2023-03-15T20:20:23.922Z,100546.13
2023-03-15T20:22:51.312Z,100551.25
2023-03-15T20:25:20.306Z,100551.25
2023-03-15T20:27:48.130Z,100554.72
2023-03-15T20:30:17.159Z,100542.69
2023-03-15T20:32:44.650Z,100553.06
2023-03-15T20:35:12.396Z,100553.16
2023-03-15T20:37:40.883Z,100553.09
2023-03-15T20:40:11.781Z,100558.19
2023-03-15T20:42:39.209Z,100556.25
2023-03-15T20:45:07.494Z,100557.63
2023-03-15T20:47:34.771Z,100559.00
2023-03-15T20:50:03.420Z,100569.78
2023-03-15T20:52:32.340Z,100563.63
2023-03-15T20:54:59.869Z,100563.34
2023-03-15T20:57:27.232Z,100568.34
2023-03-15T20:59:54.436Z,100573.44
2023-03-15T21:02:22.889Z,100576.69
2023-03-15T21:04:50.151Z,100585.19
2023-03-15T21:07:17.377Z,100585.19
2023-03-15T21:09:44.502Z,100590.38
2023-03-15T21:12:11.752Z,100583.41
2023-03-15T21:14:38.818Z,100585.19
2023-03-15T21:17:05.815Z,100590.09
2023-03-15T21:19:33.032Z,100585.50
2023-03-15T21:22:01.111Z,100593.03
2023-03-15T21:24:32.537Z,100595.69
2023-03-15T21:27:06.459Z,100591.28
2023-03-15T21:29:34.240Z,100604.66
2023-03-15T21:32:02.564Z,100607.31
2023-03-15T21:34:29.671Z,100599.75
2023-03-15T21:36:56.938Z,100593.84
2023-03-15T21:39:24.289Z,100611.78
2023-03-15T21:41:51.286Z,100612.50
2023-03-15T21:44:18.365Z,100619.06
2023-03-15T21:46:45.742Z,100618.94
2023-03-15T21:49:12.950Z,100623.84
2023-03-15T21:51:40.007Z,100613.47
2023-03-15T21:54:07.140Z,100619.22
2023-03-15T21:56:34.161Z,100598.31
2023-03-15T21:59:01.866Z,100619.63
2023-03-15T22:01:29.067Z,100622.94
2023-03-15T22:03:56.187Z,100627.03
2023-03-15T22:06:23.434Z,100623.50
2023-03-15T22:08:50.816Z,100614.81
2023-03-15T22:11:17.805Z,100625.19
2023-03-15T22:13:45.438Z,100639.50
2023-03-15T22:16:12.886Z,100631.75
2023-03-15T22:18:41.079Z,100639.41
2023-03-15T22:21:08.229Z,100632.44
2023-03-15T22:23:35.319Z,100628.09
2023-03-15T22:26:02.433Z,100640.25
2023-03-15T22:28:29.493Z,100646.94
2023-03-15T22:30:56.726Z,100646.09
2023-03-15T22:33:23.869Z,100651.94
2023-03-15T22:35:58.618Z,100646.84
2023-03-15T22:38:26.414Z,100657.66
2023-03-15T22:41:05.532Z,100653.44
2023-03-15T22:43:32.736Z,100648.25
2023-03-15T22:46:00.051Z,100649.06
2023-03-15T22:48:28.048Z,100654.25
2023-03-15T22:51:02.716Z,100649.84
2023-03-15T22:53:30.181Z,100644.56
2023-03-15T22:55:57.759Z,100639.25
2023-03-15T22:58:25.448Z,100646.28
2023-03-15T23:00:52.516Z,100650.47
2023-03-15T23:03:19.671Z,100645.09
2023-03-15T23:05:47.053Z,100644.44
2023-03-15T23:08:14.098Z,100648.72
2023-03-15T23:10:42.209Z,100650.38
2023-03-15T23:13:09.777Z,100652.88
2023-03-15T23:15:37.088Z,100647.91
2023-03-15T23:18:05.536Z,100653.13
2023-03-15T23:20:33.779Z,100658.22
2023-03-15T23:23:00.949Z,100648.13
2023-03-15T23:25:31.136Z,100649.06
2023-03-15T23:27:58.065Z,100651.47
2023-03-15T23:30:25.639Z,100654.72
2023-03-15T23:32:57.783Z,100658.09
2023-03-15T23:35:25.593Z,100650.47
2023-03-15T23:37:53.287Z,100646.16
2023-03-15T23:40:21.543Z,100656.69
2023-03-15T23:42:52.718Z,100663.41
2023-03-15T23:45:19.831Z,100669.28
2023-03-15T23:47:47.120Z,100669.19
2023-03-15T23:50:14.518Z,100672.88
2023-03-15T23:52:41.829Z,100675.50
2023-03-15T23:55:10.110Z,100682.28
2023-03-15T23:57:37.492Z,100683.88
